createdAt,value
2023-02-03T00:00:33.947Z,88.01
2023-02-03T00:02:37.027Z,88.14
2023-02-03T00:04:40.071Z,88.30
2023-02-03T00:06:43.728Z,88.13
2023-02-03T00:08:48.317Z,88.37
2023-02-03T00:10:51.432Z,88.27
2023-02-03T00:12:55.033Z,88.42
2023-02-03T00:14:58.086Z,88.48
2023-02-03T00:17:01.116Z,88.61
2023-02-03T00:19:04.437Z,88.58
2023-02-03T00:21:07.969Z,88.76
2023-02-03T00:23:12.797Z,88.92
2023-02-03T00:25:17.307Z,89.09
2023-02-03T00:27:20.327Z,89.04
2023-02-03T00:29:25.877Z,89.11
2023-02-03T00:31:29.057Z,89.34
2023-02-03T00:33:33.697Z,89.53
2023-02-03T00:35:39.431Z,89.70
2023-02-03T00:37:56.493Z,89.86
2023-02-03T00:39:59.515Z,89.89
2023-02-03T00:42:04.738Z,90.06
2023-02-03T00:44:07.855Z,90.16
2023-02-03T00:46:11.494Z,90.15
2023-02-03T00:48:15.042Z,90.36
2023-02-03T00:50:20.337Z,90.46
2023-02-03T00:52:23.356Z,90.43
2023-02-03T00:54:26.704Z,90.69
2023-02-03T00:56:29.743Z,90.67
2023-02-03T00:58:34.124Z,90.79
2023-02-03T01:00:39.653Z,90.70
2023-02-03T01:02:42.863Z,90.87
2023-02-03T01:04:45.898Z,90.95
2023-02-03T01:06:48.924Z,91.02
2023-02-03T01:08:52.527Z,91.07
2023-02-03T01:10:55.537Z,91.13
2023-02-03T01:12:58.585Z,91.09
2023-02-03T01:15:06.416Z,90.99
2023-02-03T01:17:09.430Z,90.91
2023-02-03T01:19:12.447Z,90.99
2023-02-03T01:21:17.788Z,91.06
2023-02-03T01:23:20.875Z,90.89
2023-02-03T01:25:23.948Z,90.98
2023-02-03T01:27:27.009Z,90.78
2023-02-03T01:29:32.705Z,90.74
2023-02-03T01:31:39.714Z,90.72
2023-02-03T01:33:47.067Z,90.52
2023-02-03T01:35:50.078Z,90.51
2023-02-03T01:37:53.146Z,90.37
2023-02-03T01:39:56.169Z,90.12
2023-02-03T01:41:59.203Z,90.13
2023-02-03T01:44:03.610Z,90.00
2023-02-03T01:46:21.841Z,89.63
2023-02-03T01:48:26.249Z,89.55
2023-02-03T01:50:33.108Z,89.67
2023-02-03T01:52:37.630Z,89.54
2023-02-03T01:54:44.902Z,89.38
2023-02-03T01:56:52.486Z,89.38
2023-02-03T01:58:55.621Z,89.29
2023-02-03T02:00:59.779Z,89.27
2023-02-03T02:03:05.526Z,89.12
2023-02-03T02:05:14.910Z,89.05
2023-02-03T02:07:18.311Z,89.01
2023-02-03T02:09:21.779Z,88.94
2023-02-03T02:11:24.817Z,88.85
2023-02-03T02:13:29.948Z,88.82
2023-02-03T02:15:44.320Z,88.87
2023-02-03T02:18:07.625Z,88.88
2023-02-03T02:20:45.563Z,88.81
2023-02-03T02:23:04.886Z,88.91
2023-02-03T02:25:45.260Z,88.78
2023-02-03T02:28:19.632Z,88.83
2023-02-03T02:30:54.953Z,88.88
2023-02-03T02:33:12.734Z,88.87
2023-02-03T02:35:21.598Z,88.86
2023-02-03T02:37:36.287Z,88.83
2023-02-03T02:39:48.112Z,88.97
2023-02-03T02:41:59.464Z,88.88
2023-02-03T02:44:08.893Z,88.84
2023-02-03T02:46:14.799Z,88.88
2023-02-03T02:48:24.186Z,88.82
2023-02-03T02:50:33.141Z,88.64
2023-02-03T02:52:42.205Z,88.70
2023-02-03T02:54:50.655Z,88.66
2023-02-03T02:56:57.905Z,88.74
2023-02-03T02:59:03.994Z,88.57
2023-02-03T03:01:09.537Z,88.51
2023-02-03T03:03:15.721Z,88.33
2023-02-03T03:05:20.996Z,88.28
2023-02-03T03:07:30.200Z,88.08
2023-02-03T03:09:37.178Z,88.04
2023-02-03T03:11:44.315Z,87.75
2023-02-03T03:13:51.032Z,87.68
2023-02-03T03:15:57.738Z,87.66
2023-02-03T03:18:07.018Z,87.41
2023-02-03T03:20:13.787Z,87.12
2023-02-03T03:22:21.318Z,87.00
2023-02-03T03:24:29.102Z,87.08
2023-02-03T03:26:36.468Z,86.73
2023-02-03T03:28:46.821Z,86.45
2023-02-03T03:30:50.125Z,86.15
2023-02-03T03:32:53.977Z,86.18
2023-02-03T03:34:57.819Z,86.04
2023-02-03T03:37:08.560Z,85.88
2023-02-03T03:39:16.716Z,85.89
2023-02-03T03:41:28.114Z,85.78
2023-02-03T03:43:36.140Z,85.75
2023-02-03T03:45:45.751Z,85.61
2023-02-03T03:47:54.359Z,85.67
2023-02-03T03:50:00.907Z,85.63
2023-02-03T03:52:10.283Z,85.75
2023-02-03T03:54:17.947Z,86.04
2023-02-03T03:56:26.660Z,85.93
2023-02-03T03:58:32.119Z,86.09
2023-02-03T04:00:38.893Z,85.98
2023-02-03T04:02:46.422Z,86.18
2023-02-03T04:04:50.794Z,86.25
2023-02-03T04:06:55.595Z,86.29
2023-02-03T04:08:58.644Z,86.27
2023-02-03T04:11:03.113Z,86.65
2023-02-03T04:13:07.688Z,86.68
2023-02-03T04:15:10.975Z,86.98
2023-02-03T04:17:14.030Z,87.01
2023-02-03T04:19:17.048Z,87.69
2023-02-03T04:21:21.207Z,87.78
2023-02-03T04:23:24.262Z,88.02
2023-02-03T04:25:27.752Z,88.08
2023-02-03T04:27:32.243Z,88.40
2023-02-03T04:29:35.286Z,88.48
2023-02-03T04:31:39.477Z,88.87
2023-02-03T04:33:42.508Z,89.13
2023-02-03T04:35:45.509Z,88.93
2023-02-03T04:37:48.509Z,89.10
2023-02-03T04:39:52.505Z,89.07
2023-02-03T04:41:55.544Z,89.28
2023-02-03T04:43:59.939Z,89.43
2023-02-03T04:46:03.069Z,89.38
2023-02-03T04:48:06.311Z,89.54
2023-02-03T04:50:10.399Z,89.49
2023-02-03T04:52:14.192Z,89.70
2023-02-03T04:54:17.372Z,89.63
2023-02-03T04:56:20.705Z,89.67
2023-02-03T04:58:23.938Z,89.79
2023-02-03T05:00:30.613Z,89.86
2023-02-03T05:02:33.884Z,89.99
2023-02-03T05:04:36.924Z,90.14
2023-02-03T05:06:40.017Z,90.14
2023-02-03T05:08:43.145Z,90.09
2023-02-03T05:10:46.221Z,90.21
2023-02-03T05:12:49.277Z,90.34
2023-02-03T05:14:52.299Z,90.41
2023-02-03T05:16:56.839Z,90.31
2023-02-03T05:18:59.907Z,90.45
2023-02-03T05:21:03.184Z,90.56
2023-02-03T05:23:06.285Z,90.59
2023-02-03T05:25:10.459Z,90.54
2023-02-03T05:27:13.565Z,90.47
2023-02-03T05:29:16.588Z,90.68
2023-02-03T05:31:19.799Z,90.70
2023-02-03T05:33:24.298Z,90.66
2023-02-03T05:35:27.410Z,90.71
2023-02-03T05:37:30.653Z,90.78
2023-02-03T05:39:33.648Z,90.84
2023-02-03T05:41:54.115Z,90.87
2023-02-03T05:43:57.961Z,90.92
2023-02-03T05:46:01.998Z,90.91
2023-02-03T05:48:05.297Z,90.87
2023-02-03T05:50:10.295Z,90.92
2023-02-03T05:52:13.305Z,90.96
2023-02-03T05:54:16.790Z,90.98
2023-02-03T05:56:19.965Z,90.98
2023-02-03T05:58:23.138Z,90.95
2023-02-03T06:00:26.547Z,90.94
2023-02-03T06:02:29.765Z,91.07
2023-02-03T06:04:32.847Z,91.07
2023-02-03T06:06:37.293Z,90.99
2023-02-03T06:08:40.306Z,91.01
2023-02-03T06:10:43.343Z,91.23
2023-02-03T06:12:46.421Z,91.10
2023-02-03T06:14:49.438Z,91.20
2023-02-03T06:16:52.597Z,91.11
2023-02-03T06:18:58.410Z,91.42
2023-02-03T06:21:01.495Z,91.34
2023-02-03T06:23:05.984Z,91.42
2023-02-03T06:25:12.633Z,91.53
2023-02-03T06:27:16.428Z,91.60
2023-02-03T06:29:19.610Z,91.59
2023-02-03T06:31:22.696Z,91.52
2023-02-03T06:33:25.820Z,91.70
2023-02-03T06:35:28.917Z,91.57
2023-02-03T06:37:32.388Z,91.75
2023-02-03T06:39:36.849Z,91.73
2023-02-03T06:41:39.886Z,91.69
2023-02-03T06:43:42.969Z,91.79
2023-02-03T06:45:47.218Z,91.75
2023-02-03T06:47:50.267Z,91.78
2023-02-03T06:49:53.332Z,91.93
2023-02-03T06:51:56.733Z,91.96
2023-02-03T06:53:59.873Z,91.97
2023-02-03T06:56:04.506Z,92.04
2023-02-03T06:58:07.541Z,92.05
2023-02-03T07:00:16.729Z,92.08
2023-02-03T07:02:21.521Z,92.15
2023-02-03T07:04:24.809Z,92.08
2023-02-03T07:06:29.231Z,92.12
2023-02-03T07:08:32.239Z,92.01
2023-02-03T07:10:35.282Z,92.05
2023-02-03T07:12:39.665Z,92.06
2023-02-03T07:14:42.648Z,92.10
2023-02-03T07:16:45.764Z,92.00
2023-02-03T07:18:49.512Z,91.90
2023-02-03T07:20:52.684Z,91.99
2023-02-03T07:22:57.559Z,91.91
2023-02-03T07:25:00.597Z,92.01
2023-02-03T07:27:04.677Z,91.88
2023-02-03T07:29:09.400Z,92.06
2023-02-03T07:31:12.610Z,92.13
2023-02-03T07:33:15.694Z,92.23
2023-02-03T07:35:19.463Z,92.21
2023-02-03T07:37:22.480Z,92.35
2023-02-03T07:39:25.727Z,92.26
2023-02-03T07:41:28.772Z,92.32
2023-02-03T07:43:31.846Z,92.21
2023-02-03T07:45:36.281Z,92.29
2023-02-03T07:47:39.476Z,92.09
2023-02-03T07:49:42.936Z,92.17
2023-02-03T07:51:46.031Z,92.17
2023-02-03T07:53:49.070Z,92.13
2023-02-03T07:55:52.035Z,92.21
2023-02-03T07:57:55.250Z,92.16
2023-02-03T07:59:58.291Z,92.17
2023-02-03T08:02:02.841Z,92.15
2023-02-03T08:04:06.451Z,92.00
2023-02-03T08:06:10.169Z,92.02
2023-02-03T08:08:13.141Z,91.95
2023-02-03T08:10:17.935Z,91.62
2023-02-03T08:12:21.733Z,91.10
2023-02-03T08:14:29.806Z,90.62
2023-02-03T08:16:32.986Z,90.51
2023-02-03T08:18:37.538Z,90.01
2023-02-03T08:20:40.628Z,89.89
2023-02-03T08:22:43.751Z,89.53
2023-02-03T08:24:47.813Z,88.53
2023-02-03T08:26:50.873Z,88.17
2023-02-03T08:28:54.176Z,88.15
2023-02-03T08:30:57.759Z,88.07
2023-02-03T08:33:01.554Z,87.73
2023-02-03T08:35:08.176Z,87.29
2023-02-03T08:37:13.824Z,86.32
2023-02-03T08:39:17.067Z,86.06
2023-02-03T08:41:20.467Z,85.56
2023-02-03T08:43:23.543Z,85.47
2023-02-03T08:45:26.648Z,84.24
2023-02-03T08:47:29.829Z,82.73
2023-02-03T08:49:33.217Z,82.55
2023-02-03T08:51:37.809Z,81.28
2023-02-03T08:53:40.882Z,81.45
2023-02-03T08:55:43.889Z,80.84
2023-02-03T08:57:47.349Z,80.27
2023-02-03T08:59:51.226Z,79.60
2023-02-03T09:01:55.070Z,79.93
2023-02-03T09:03:58.510Z,79.34
2023-02-03T09:06:01.602Z,78.70
2023-02-03T09:08:06.641Z,78.02
2023-02-03T09:10:10.682Z,77.23
2023-02-03T09:12:13.849Z,77.41
2023-02-03T09:14:16.880Z,77.03
2023-02-03T09:16:21.349Z,77.20
2023-02-03T09:18:24.426Z,77.12
2023-02-03T09:20:28.006Z,77.05
2023-02-03T09:22:31.413Z,77.04
2023-02-03T09:24:35.955Z,76.71
2023-02-03T09:26:38.969Z,77.03
2023-02-03T09:28:42.189Z,76.67
2023-02-03T09:30:45.274Z,76.99
2023-02-03T09:32:54.086Z,76.50
2023-02-03T09:34:57.168Z,76.63
2023-02-03T09:37:00.254Z,76.37
2023-02-03T09:39:03.316Z,76.47
2023-02-03T09:41:19.185Z,76.51
2023-02-03T09:43:37.688Z,76.28
2023-02-03T09:45:40.837Z,75.60
2023-02-03T09:47:45.416Z,75.61
2023-02-03T09:49:51.693Z,75.41
2023-02-03T09:51:59.554Z,75.00
2023-02-03T09:54:08.738Z,75.07
2023-02-03T09:56:24.677Z,75.20
2023-02-03T09:58:33.564Z,74.99
2023-02-03T10:00:42.388Z,74.82
2023-02-03T10:02:57.086Z,74.83
2023-02-03T10:05:07.438Z,74.91
2023-02-03T10:07:16.843Z,75.34
2023-02-03T10:09:38.395Z,75.74
2023-02-03T10:11:59.600Z,75.84
2023-02-03T10:14:16.292Z,75.87
2023-02-03T10:16:37.000Z,75.81
2023-02-03T10:18:43.496Z,75.48
2023-02-03T10:20:51.084Z,75.49
2023-02-03T10:22:57.196Z,75.28
2023-02-03T10:25:05.285Z,75.15
2023-02-03T10:27:18.056Z,74.97
2023-02-03T10:29:25.537Z,74.37
2023-02-03T10:31:32.298Z,74.07
2023-02-03T10:33:35.756Z,73.44
2023-02-03T10:35:47.713Z,73.29
2023-02-03T10:37:52.939Z,72.99
2023-02-03T10:39:58.838Z,72.83
2023-02-03T10:42:04.391Z,72.67
2023-02-03T10:44:12.481Z,72.33
2023-02-03T10:46:15.943Z,72.43
2023-02-03T10:48:20.110Z,72.54
2023-02-03T10:50:31.506Z,72.58
2023-02-03T10:52:36.029Z,72.36
2023-02-03T10:54:39.256Z,72.50
2023-02-03T10:56:42.470Z,72.51
2023-02-03T10:58:50.609Z,72.84
2023-02-03T11:00:59.881Z,72.72
2023-02-03T11:03:08.991Z,72.42
2023-02-03T11:05:22.309Z,72.47
2023-02-03T11:07:27.007Z,72.47
2023-02-03T11:09:33.357Z,72.16
2023-02-03T11:11:41.567Z,71.85
2023-02-03T11:13:44.783Z,71.41
2023-02-03T11:15:57.878Z,71.57
2023-02-03T11:18:01.076Z,70.79
2023-02-03T11:20:14.092Z,71.10
2023-02-03T11:22:29.849Z,70.98
2023-02-03T11:24:34.957Z,70.53
2023-02-03T11:26:42.753Z,70.57
2023-02-03T11:28:48.736Z,69.98
2023-02-03T11:30:59.045Z,69.16
2023-02-03T11:33:03.812Z,68.97
2023-02-03T11:35:18.643Z,69.09
2023-02-03T11:37:31.203Z,69.02
2023-02-03T11:39:35.790Z,69.05
2023-02-03T11:41:40.120Z,68.91
2023-02-03T11:43:43.178Z,68.87
2023-02-03T11:45:48.713Z,68.42
2023-02-03T11:48:17.027Z,68.40
2023-02-03T11:50:31.315Z,68.56
2023-02-03T11:52:51.472Z,68.42
2023-02-03T11:55:04.976Z,68.33
2023-02-03T11:57:30.631Z,68.03
2023-02-03T11:59:43.886Z,67.55
2023-02-03T12:02:23.333Z,67.32
2023-02-03T12:04:49.434Z,67.22
2023-02-03T12:07:07.382Z,67.07
2023-02-03T12:09:22.885Z,66.45
2023-02-03T12:11:46.131Z,65.84
2023-02-03T12:14:14.507Z,66.26
2023-02-03T12:16:38.409Z,66.33
2023-02-03T12:18:53.805Z,66.17
2023-02-03T12:21:12.990Z,66.44
2023-02-03T12:23:26.812Z,66.46
2023-02-03T12:25:38.346Z,66.37
2023-02-03T12:27:47.006Z,66.26
2023-02-03T12:29:55.548Z,66.46
2023-02-03T12:32:07.885Z,66.91
2023-02-03T12:34:18.882Z,66.75
2023-02-03T12:36:27.964Z,66.82
2023-02-03T12:38:36.807Z,66.96
2023-02-03T12:40:49.169Z,67.33
2023-02-03T12:42:57.167Z,67.59
2023-02-03T12:45:04.887Z,67.95
2023-02-03T12:47:18.669Z,67.96
2023-02-03T12:49:33.863Z,68.29
2023-02-03T12:51:43.737Z,68.00
2023-02-03T12:53:52.187Z,68.33
2023-02-03T12:56:04.312Z,68.24
2023-02-03T12:58:11.807Z,68.15
2023-02-03T13:00:33.183Z,68.48
2023-02-03T13:02:51.105Z,68.52
2023-02-03T13:04:59.051Z,68.72
2023-02-03T13:07:10.681Z,68.60
2023-02-03T13:09:25.444Z,68.75
2023-02-03T13:11:35.195Z,68.55
2023-02-03T13:13:43.868Z,68.25
2023-02-03T13:15:50.512Z,68.44
2023-02-03T13:17:59.057Z,68.14
2023-02-03T13:20:15.157Z,68.50
2023-02-03T13:22:23.746Z,68.40
2023-02-03T13:24:29.186Z,68.47
2023-02-03T13:26:48.657Z,68.57
2023-02-03T13:29:06.323Z,68.72
2023-02-03T13:31:23.416Z,68.96
2023-02-03T13:33:55.923Z,69.13
2023-02-03T13:36:14.003Z,69.17
2023-02-03T13:38:34.081Z,69.44
2023-02-03T13:40:49.450Z,69.52
2023-02-03T13:42:56.414Z,69.33
2023-02-03T13:45:08.349Z,69.51
2023-02-03T13:47:17.745Z,69.25
2023-02-03T13:49:28.452Z,69.13
2023-02-03T13:51:35.191Z,68.93
2023-02-03T13:53:42.583Z,68.80
2023-02-03T13:55:54.006Z,68.75
2023-02-03T13:57:57.785Z,68.30
2023-02-03T14:00:01.435Z,68.29
2023-02-03T14:02:43.212Z,68.16
2023-02-03T14:04:55.030Z,68.15
2023-02-03T14:07:01.056Z,68.25
2023-02-03T14:09:21.582Z,68.28
2023-02-03T14:11:49.083Z,68.36
2023-02-03T14:13:52.726Z,68.44
2023-02-03T14:16:16.530Z,68.44
2023-02-03T14:18:34.670Z,68.56
2023-02-03T14:20:57.270Z,68.73
2023-02-03T14:23:07.856Z,68.87
2023-02-03T14:25:12.380Z,69.04
2023-02-03T14:27:21.255Z,69.36
2023-02-03T14:29:29.528Z,69.54
2023-02-03T14:31:32.948Z,69.72
2023-02-03T14:34:15.715Z,69.81
2023-02-03T14:36:35.069Z,69.98
2023-02-03T14:38:38.207Z,69.95
2023-02-03T14:40:49.379Z,69.95
2023-02-03T14:43:31.779Z,70.04
2023-02-03T14:45:58.492Z,70.13
2023-02-03T14:48:15.260Z,70.36
2023-02-03T14:50:29.938Z,70.25
2023-02-03T14:53:04.036Z,70.34
2023-02-03T14:55:26.629Z,70.51
2023-02-03T14:57:39.915Z,70.31
2023-02-03T14:59:46.936Z,70.26
2023-02-03T15:02:09.398Z,70.16
2023-02-03T15:04:23.245Z,70.10
2023-02-03T15:06:39.979Z,70.24
2023-02-03T15:08:46.720Z,70.09
2023-02-03T15:10:49.880Z,70.22
2023-02-03T15:12:59.249Z,70.31
2023-02-03T15:15:14.501Z,70.25
2023-02-03T15:17:26.153Z,70.34
2023-02-03T15:19:34.434Z,70.39
2023-02-03T15:21:43.440Z,70.36
2023-02-03T15:23:49.467Z,70.53
2023-02-03T15:25:57.296Z,70.52
2023-02-03T15:28:22.196Z,70.66
2023-02-03T15:30:30.389Z,70.54
2023-02-03T15:32:42.023Z,70.80
2023-02-03T15:34:49.187Z,70.80
2023-02-03T15:36:56.719Z,70.72
2023-02-03T15:39:08.937Z,70.91
2023-02-03T15:41:22.724Z,70.88
2023-02-03T15:43:32.776Z,71.05
2023-02-03T15:45:43.082Z,71.12
2023-02-03T15:47:55.237Z,71.12
2023-02-03T15:50:26.097Z,71.12
2023-02-03T15:52:31.708Z,71.14
2023-02-03T15:55:04.166Z,71.13
2023-02-03T15:57:22.629Z,70.95
2023-02-03T15:59:33.413Z,70.99
2023-02-03T16:01:36.653Z,70.94
2023-02-03T16:03:42.905Z,70.81
2023-02-03T16:05:49.498Z,70.86
2023-02-03T16:07:52.771Z,70.80
2023-02-03T16:09:57.083Z,70.82
2023-02-03T16:12:16.389Z,70.87
2023-02-03T16:14:34.916Z,71.03
2023-02-03T16:16:43.764Z,70.98
2023-02-03T16:18:54.354Z,71.21
2023-02-03T16:20:57.442Z,71.66
2023-02-03T16:23:04.242Z,71.86
2023-02-03T16:25:19.613Z,72.36
2023-02-03T16:27:34.429Z,73.05
2023-02-03T16:29:56.557Z,73.01
2023-02-03T16:32:17.712Z,73.16
2023-02-03T16:34:38.208Z,73.35
2023-02-03T16:37:00.434Z,73.79
2023-02-03T16:39:27.567Z,73.96
2023-02-03T16:41:49.645Z,74.36
2023-02-03T16:44:10.246Z,74.70
2023-02-03T16:46:32.573Z,75.15
2023-02-03T16:48:52.979Z,75.25
2023-02-03T16:50:59.283Z,75.63
2023-02-03T16:53:02.904Z,76.10
2023-02-03T16:55:06.979Z,76.24
2023-02-03T16:57:10.164Z,76.85
2023-02-03T16:59:13.361Z,77.24
2023-02-03T17:01:23.028Z,78.03
2023-02-03T17:03:28.479Z,78.56
2023-02-03T17:05:32.056Z,79.04
2023-02-03T17:07:35.781Z,79.53
2023-02-03T17:09:40.893Z,79.88
2023-02-03T17:11:44.110Z,80.13
2023-02-03T17:13:48.203Z,80.23
2023-02-03T17:16:03.219Z,80.49
2023-02-03T17:18:08.385Z,80.57
2023-02-03T17:20:12.066Z,80.64
2023-02-03T17:22:15.151Z,80.58
2023-02-03T17:24:18.281Z,80.74
2023-02-03T17:26:21.424Z,80.54
2023-02-03T17:28:24.505Z,80.70
2023-02-03T17:30:29.034Z,80.63
2023-02-03T17:32:32.152Z,80.52
2023-02-03T17:34:37.959Z,80.64
2023-02-03T17:36:41.062Z,80.59
2023-02-03T17:55:09.224Z,81.29
2023-02-03T17:57:12.342Z,81.57
2023-02-03T17:59:15.522Z,81.58
2023-02-03T18:01:20.569Z,81.59
2023-02-03T18:03:23.656Z,81.54
2023-02-03T18:05:26.790Z,81.76
2023-02-03T18:07:31.301Z,81.55
2023-02-03T18:09:34.365Z,81.76
2023-02-03T18:11:38.922Z,81.51
2023-02-03T18:13:43.881Z,81.36
2023-02-03T18:15:47.169Z,81.43
2023-02-03T18:17:50.327Z,81.42
2023-02-03T18:19:56.157Z,81.21
2023-02-03T18:21:59.936Z,81.08
2023-02-03T18:24:05.883Z,81.21
2023-02-03T18:26:11.768Z,81.04
2023-02-03T18:28:16.007Z,80.96
2023-02-03T18:30:21.582Z,80.73
2023-02-03T18:32:24.703Z,80.76
2023-02-03T18:34:27.870Z,80.55
2023-02-03T18:36:30.960Z,80.60
2023-02-03T18:38:36.248Z,80.70
2023-02-03T18:40:40.911Z,80.75
2023-02-03T18:42:44.070Z,80.71
2023-02-03T18:44:47.208Z,80.76
2023-02-03T18:46:53.230Z,80.79
2023-02-03T18:48:56.797Z,80.83
2023-02-03T18:51:00.094Z,80.89
2023-02-03T18:53:03.164Z,81.33
2023-02-03T18:55:06.749Z,81.47
2023-02-03T18:57:13.278Z,81.70
2023-02-03T18:59:16.390Z,81.90
2023-02-03T19:01:27.178Z,82.17
2023-02-03T19:03:30.463Z,82.25
2023-02-03T19:05:33.623Z,82.70
2023-02-03T19:07:36.787Z,82.79
2023-02-03T19:09:40.888Z,83.08
2023-02-03T19:11:44.040Z,83.09
2023-02-03T19:13:48.484Z,83.20
2023-02-03T19:15:53.002Z,83.27
2023-02-03T19:17:56.135Z,83.44
2023-02-03T19:19:59.276Z,83.38
2023-02-03T19:22:02.396Z,83.56
2023-02-03T19:24:06.345Z,83.65
2023-02-03T19:26:10.112Z,83.76
2023-02-03T19:28:20.062Z,83.83
2023-02-03T19:30:29.200Z,84.07
2023-02-03T19:32:33.113Z,84.06
2023-02-03T19:34:36.280Z,84.17
2023-02-03T19:36:39.404Z,84.41
2023-02-03T19:38:42.749Z,84.51
2023-02-03T19:40:46.732Z,84.52
2023-02-03T19:42:50.105Z,84.33
2023-02-03T19:44:53.409Z,84.27
2023-02-03T19:46:57.933Z,84.03
2023-02-03T19:49:01.065Z,83.95
2023-02-03T19:51:04.178Z,83.88
2023-02-03T19:53:08.434Z,83.96
2023-02-03T19:55:12.527Z,83.85
2023-02-03T19:57:15.888Z,83.77
2023-02-03T19:59:18.972Z,83.79
2023-02-03T20:01:24.047Z,83.56
2023-02-03T20:03:28.671Z,83.25
2023-02-03T20:05:31.722Z,83.13
2023-02-03T20:07:34.825Z,83.06
2023-02-03T20:09:37.868Z,82.65
2023-02-03T20:11:40.915Z,82.57
2023-02-03T20:13:44.366Z,81.95
2023-02-03T20:15:47.632Z,81.62
2023-02-03T20:17:50.836Z,81.14
2023-02-03T20:19:55.302Z,81.01
2023-02-03T20:21:58.384Z,80.84
2023-02-03T20:24:01.498Z,80.54
2023-02-03T20:26:06.935Z,80.48
2023-02-03T20:28:10.191Z,80.28
2023-02-03T20:30:14.354Z,80.25
2023-02-03T20:32:17.492Z,80.12
2023-02-03T20:34:20.663Z,80.12
2023-02-03T20:36:25.183Z,80.13
2023-02-03T20:38:28.502Z,80.13
2023-02-03T20:40:32.467Z,80.46
2023-02-03T20:42:35.746Z,80.62
2023-02-03T20:44:38.783Z,81.00
2023-02-03T20:46:42.731Z,81.37
2023-02-03T20:48:45.926Z,81.53
2023-02-03T20:50:50.288Z,81.88
2023-02-03T20:52:54.823Z,81.97
2023-02-03T20:54:57.868Z,82.09
2023-02-03T20:57:00.890Z,82.27
2023-02-03T20:59:03.944Z,82.20
2023-02-03T21:01:14.389Z,82.54
2023-02-03T21:03:36.137Z,82.40
2023-02-03T21:05:41.874Z,82.36
2023-02-03T21:07:45.010Z,82.15
2023-02-03T21:09:49.419Z,82.20
2023-02-03T21:11:53.113Z,82.01
2023-02-03T21:13:56.507Z,81.56
2023-02-03T21:16:03.152Z,81.45
2023-02-03T21:18:36.440Z,81.46
2023-02-03T21:20:39.435Z,81.13
2023-02-03T21:22:42.454Z,80.96
2023-02-03T21:24:52.188Z,80.68
2023-02-03T21:26:55.942Z,80.70
2023-02-03T21:29:00.975Z,80.10
2023-02-03T21:31:04.081Z,79.94
2023-02-03T21:33:28.724Z,79.81
2023-02-03T21:35:37.187Z,79.30
2023-02-03T21:37:42.286Z,78.79
2023-02-03T21:39:46.242Z,78.23
2023-02-03T21:41:50.671Z,77.74
2023-02-03T21:43:56.899Z,77.27
2023-02-03T21:46:00.085Z,77.32
2023-02-03T21:48:23.894Z,77.01
2023-02-03T21:50:32.126Z,76.06
2023-02-03T21:52:36.060Z,75.63
2023-02-03T21:54:41.852Z,75.62
2023-02-03T21:56:45.410Z,75.68
2023-02-03T21:58:52.055Z,75.19
2023-02-03T22:00:55.998Z,74.92
2023-02-03T22:03:00.652Z,74.84
2023-02-03T22:05:04.397Z,74.93
2023-02-03T22:07:16.008Z,74.93
2023-02-03T22:09:21.127Z,75.09
2023-02-03T22:11:26.045Z,75.11
2023-02-03T22:13:29.510Z,75.13
2023-02-03T22:15:33.886Z,75.26
2023-02-03T22:17:37.030Z,75.38
2023-02-03T22:19:40.214Z,75.58
2023-02-03T22:21:43.277Z,75.69
2023-02-03T22:23:46.769Z,75.76
2023-02-03T22:25:50.485Z,75.87
2023-02-03T22:27:53.543Z,75.90
2023-02-03T22:29:56.733Z,75.72
2023-02-03T22:32:01.691Z,75.93
2023-02-03T22:34:05.154Z,76.03
2023-02-03T22:36:09.977Z,76.01
2023-02-03T22:38:13.026Z,76.21
2023-02-03T22:40:16.167Z,76.28
2023-02-03T22:42:19.132Z,76.25
2023-02-03T22:44:22.217Z,76.21
2023-02-03T22:46:25.263Z,76.13
2023-02-03T22:48:30.466Z,76.19
2023-02-03T22:50:36.061Z,76.18
2023-02-03T22:52:39.852Z,76.23
2023-02-03T22:54:42.908Z,76.27
2023-02-03T22:56:46.121Z,76.27
2023-02-03T22:58:49.252Z,76.31
2023-02-03T23:00:52.347Z,76.30
2023-02-03T23:02:56.024Z,76.43
2023-02-03T23:05:00.632Z,76.37
2023-02-03T23:07:03.732Z,76.55
2023-02-03T23:09:06.865Z,76.57
2023-02-03T23:11:09.980Z,76.61
2023-02-03T23:13:13.016Z,76.95
2023-02-03T23:15:17.938Z,76.96
2023-02-03T23:17:21.014Z,77.16
2023-02-03T23:19:24.835Z,77.17
2023-02-03T23:21:29.577Z,77.05
2023-02-03T23:23:32.762Z,76.73
2023-02-03T23:25:36.014Z,76.65
2023-02-03T23:27:39.408Z,76.27
2023-02-03T23:29:43.052Z,76.37
2023-02-03T23:31:46.173Z,76.10
2023-02-03T23:34:03.150Z,75.88
2023-02-03T23:36:07.055Z,75.99
2023-02-03T23:38:12.080Z,75.70
2023-02-03T23:40:15.478Z,75.53
2023-02-03T23:42:18.559Z,75.28
2023-02-03T23:44:21.909Z,75.36
2023-02-03T23:46:25.138Z,75.30
2023-02-03T23:48:28.523Z,75.28
2023-02-03T23:50:32.231Z,75.25
2023-02-03T23:52:36.769Z,75.43
2023-02-03T23:54:41.899Z,75.28
2023-02-03T23:56:45.045Z,75.10
2023-02-03T23:58:48.106Z,75.32
